createdAt,value
2019-03-10T00:02:16.211Z,2.57
2019-03-10T00:04:44.507Z,2.57
2019-03-10T00:07:12.802Z,2.13
2019-03-10T00:09:41.079Z,2.30
2019-03-10T00:12:09.382Z,2.03
2019-03-10T00:14:37.729Z,2.30
2019-03-10T00:17:06.001Z,2.57
2019-03-10T00:19:36.658Z,2.93
2019-03-10T00:22:04.495Z,3.40
2019-03-10T00:24:32.790Z,4.43
2019-03-10T00:27:01.048Z,3.77
2019-03-10T00:29:29.295Z,2.93
2019-03-10T00:31:57.587Z,2.80
2019-03-10T00:34:25.842Z,2.40
2019-03-10T00:36:54.134Z,2.80
2019-03-10T00:39:43.436Z,2.50
2019-03-10T00:42:47.632Z,2.67
2019-03-10T00:45:22.045Z,3.03
2019-03-10T00:48:16.054Z,2.67
2019-03-10T00:50:53.394Z,2.77
2019-03-10T00:53:21.651Z,2.40
2019-03-10T00:55:49.977Z,3.47
2019-03-10T00:58:18.231Z,2.40
2019-03-10T01:00:46.525Z,2.73
2019-03-10T01:03:14.777Z,2.80
2019-03-10T01:05:43.081Z,3.13
2019-03-10T01:08:11.386Z,3.30
2019-03-10T01:10:39.721Z,4.37
2019-03-10T01:13:08.040Z,4.07
2019-03-10T01:15:36.315Z,3.97
2019-03-10T01:18:04.665Z,4.30
2019-03-10T01:20:32.952Z,4.87
2019-03-10T01:23:01.222Z,4.70
2019-03-10T01:25:29.482Z,4.70
2019-03-10T01:27:57.771Z,5.40
2019-03-10T01:30:26.060Z,4.90
2019-03-10T01:33:00.116Z,5.83
2019-03-10T01:35:29.315Z,5.13
2019-03-10T01:37:57.616Z,5.50
2019-03-10T01:40:25.863Z,6.10
2019-03-10T01:42:54.185Z,6.57
2019-03-10T01:45:22.425Z,5.40
2019-03-10T01:47:50.688Z,5.53
2019-03-10T01:50:18.970Z,5.23
2019-03-10T01:52:47.212Z,5.50
2019-03-10T01:55:15.505Z,5.90
2019-03-10T01:57:43.797Z,5.27
2019-03-10T02:00:14.691Z,5.23
2019-03-10T02:02:42.991Z,6.37
2019-03-10T02:05:11.269Z,6.47
2019-03-10T02:07:39.573Z,5.57
2019-03-10T02:10:10.062Z,5.70
2019-03-10T02:12:38.314Z,5.60
2019-03-10T02:15:12.151Z,5.53
2019-03-10T02:17:40.431Z,6.03
2019-03-10T02:20:16.411Z,5.47
2019-03-10T02:22:44.670Z,5.53
2019-03-10T02:25:12.934Z,5.60
2019-03-10T02:27:41.199Z,5.90
2019-03-10T02:30:14.715Z,5.60
2019-03-10T02:32:42.974Z,5.93
2019-03-10T02:35:11.273Z,4.93
2019-03-10T02:37:39.534Z,4.87
2019-03-10T02:40:08.447Z,5.50
2019-03-10T02:42:36.704Z,5.60
2019-03-10T02:45:06.452Z,5.17
2019-03-10T02:47:34.797Z,5.93
2019-03-10T02:50:03.286Z,4.87
2019-03-10T02:52:31.540Z,5.53
2019-03-10T02:54:59.838Z,5.57
2019-03-10T02:57:28.183Z,5.73
2019-03-10T02:59:56.512Z,5.47
2019-03-10T03:02:24.800Z,5.27
2019-03-10T03:04:53.058Z,5.60
2019-03-10T03:07:21.428Z,6.00
2019-03-10T03:09:49.690Z,6.53
2019-03-10T03:12:18.041Z,6.00
2019-03-10T03:14:46.365Z,5.53
2019-03-10T03:17:14.653Z,5.60
2019-03-10T03:19:42.991Z,5.73
2019-03-10T03:22:11.281Z,5.77
2019-03-10T03:24:39.601Z,5.30
2019-03-10T03:27:07.926Z,6.03
2019-03-10T03:29:36.195Z,5.13
2019-03-10T03:32:04.552Z,4.90
2019-03-10T03:34:32.886Z,5.80
2019-03-10T03:37:01.258Z,4.07
2019-03-10T03:39:33.409Z,5.17
2019-03-10T03:42:01.695Z,4.77
2019-03-10T03:44:29.957Z,6.13
2019-03-10T03:46:58.338Z,4.93
2019-03-10T03:49:26.660Z,4.43
2019-03-10T03:51:55.043Z,5.00
2019-03-10T03:54:23.279Z,5.00
2019-03-10T03:56:51.601Z,5.50
2019-03-10T03:59:19.850Z,5.53
2019-03-10T04:01:49.752Z,5.33
2019-03-10T04:04:18.047Z,6.07
2019-03-10T04:06:46.326Z,5.30
2019-03-10T04:09:14.683Z,4.87
2019-03-10T04:11:42.960Z,5.17
2019-03-10T04:14:11.325Z,5.17
2019-03-10T04:16:39.581Z,5.43
2019-03-10T04:19:07.853Z,5.33
2019-03-10T04:21:36.108Z,6.17
2019-03-10T04:24:04.395Z,5.70
2019-03-10T04:26:32.659Z,6.73
2019-03-10T04:29:00.942Z,5.50
2019-03-10T04:31:29.223Z,5.67
2019-03-10T04:33:57.569Z,6.53
2019-03-10T04:36:25.809Z,5.50
2019-03-10T04:38:54.180Z,5.47
2019-03-10T04:41:22.462Z,5.63
2019-03-10T04:43:50.740Z,4.57
2019-03-10T04:46:19.120Z,5.43
2019-03-10T04:48:47.414Z,5.30
2019-03-10T04:51:15.661Z,5.37
2019-03-10T04:53:43.945Z,4.30
2019-03-10T04:56:13.845Z,4.87
2019-03-10T04:58:43.800Z,4.23
2019-03-10T05:01:12.145Z,4.60
2019-03-10T05:03:40.403Z,4.47
2019-03-10T05:06:08.676Z,4.43
2019-03-10T05:08:36.977Z,5.20
2019-03-10T05:11:05.259Z,4.83
2019-03-10T05:13:33.527Z,5.77
2019-03-10T05:16:01.811Z,4.93
2019-03-10T05:18:30.144Z,6.13
2019-03-10T05:20:58.431Z,5.30
2019-03-10T05:23:28.793Z,5.07
2019-03-10T05:25:57.085Z,6.90
2019-03-10T05:28:25.399Z,6.20
2019-03-10T05:30:53.645Z,6.13
2019-03-10T05:33:21.940Z,6.57
2019-03-10T05:35:50.259Z,6.70
2019-03-10T05:38:18.571Z,6.50
2019-03-10T05:40:46.850Z,6.17
2019-03-10T05:43:15.124Z,6.77
2019-03-10T05:45:43.434Z,6.10
2019-03-10T05:48:11.720Z,6.20
2019-03-10T05:50:40.040Z,7.13
2019-03-10T05:53:08.316Z,7.00
2019-03-10T05:55:36.586Z,7.30
2019-03-10T05:58:04.879Z,6.50
2019-03-10T06:00:42.071Z,6.37
2019-03-10T06:03:03.123Z,4.93
2019-03-10T06:05:31.379Z,5.23
2019-03-10T06:07:59.680Z,6.33
2019-03-10T06:10:27.940Z,6.73
2019-03-10T06:12:56.237Z,6.70
2019-03-10T06:15:24.484Z,5.77
2019-03-10T06:17:52.775Z,5.30
2019-03-10T06:20:21.033Z,3.90
2019-03-10T06:22:49.322Z,2.90
2019-03-10T06:25:17.571Z,2.70
2019-03-10T06:27:45.866Z,2.60
2019-03-10T06:30:14.127Z,3.07
2019-03-10T06:32:42.408Z,3.77
2019-03-10T06:35:10.656Z,4.27
2019-03-10T06:37:38.942Z,3.03
2019-03-10T06:40:08.279Z,3.23
2019-03-10T06:42:36.560Z,3.40
2019-03-10T06:45:05.994Z,2.43
2019-03-10T06:47:34.249Z,2.63
2019-03-10T06:50:02.595Z,2.27
2019-03-10T06:52:30.850Z,2.40
2019-03-10T06:54:59.148Z,1.50
2019-03-10T06:57:27.454Z,1.60
2019-03-10T06:59:55.758Z,1.27
2019-03-10T07:02:23.998Z,1.20
2019-03-10T07:04:52.293Z,1.40
2019-03-10T07:07:20.544Z,1.20
2019-03-10T07:09:48.804Z,1.63
2019-03-10T07:12:17.056Z,1.27
2019-03-10T07:14:45.334Z,1.33
2019-03-10T07:17:13.595Z,1.00
2019-03-10T07:19:41.870Z,1.10
2019-03-10T07:22:10.100Z,1.43
2019-03-10T07:24:38.397Z,1.30
2019-03-10T07:27:06.625Z,1.67
2019-03-10T07:29:42.092Z,1.67
2019-03-10T07:32:14.676Z,1.00
2019-03-10T07:35:00.606Z,1.17
2019-03-10T07:37:33.230Z,1.37
2019-03-10T07:40:08.963Z,0.60
2019-03-10T07:42:44.895Z,0.80
2019-03-10T07:45:17.786Z,1.17
2019-03-10T07:47:47.688Z,0.60
2019-03-10T07:50:17.605Z,0.70
2019-03-10T07:52:50.052Z,0.70
2019-03-10T07:55:36.024Z,0.83
2019-03-10T07:58:08.930Z,1.00
2019-03-10T08:00:38.808Z,1.23
2019-03-10T08:03:26.823Z,1.07
2019-03-10T08:05:56.520Z,1.20
2019-03-10T08:08:35.215Z,1.63
2019-03-10T08:11:11.028Z,1.60
2019-03-10T08:13:49.663Z,1.80
2019-03-10T08:16:28.364Z,1.23
2019-03-10T08:18:58.320Z,1.10
2019-03-10T08:21:30.906Z,0.80
2019-03-10T08:24:18.741Z,0.93
2019-03-10T08:26:54.704Z,0.97
2019-03-10T08:29:27.321Z,2.27
2019-03-10T08:32:03.164Z,1.07
2019-03-10T08:34:51.244Z,0.83
2019-03-10T08:37:26.882Z,1.10
2019-03-10T08:40:05.788Z,1.30
2019-03-10T08:42:38.434Z,1.30
2019-03-10T08:45:27.276Z,1.10
2019-03-10T08:48:05.798Z,1.10
2019-03-10T08:50:41.750Z,1.27
2019-03-10T08:53:17.473Z,1.87
2019-03-10T08:55:55.822Z,1.27
2019-03-10T08:58:31.734Z,1.40
2019-03-10T09:01:17.648Z,1.20
2019-03-10T09:03:53.538Z,1.20
2019-03-10T09:06:38.564Z,0.97
2019-03-10T09:09:23.730Z,0.72
2019-03-10T09:11:53.645Z,1.10
2019-03-10T09:14:26.346Z,2.80
2019-03-10T09:17:11.356Z,1.50
2019-03-10T09:19:57.435Z,0.90
2019-03-10T09:22:30.063Z,0.90
2019-03-10T09:25:00.006Z,1.10
2019-03-10T09:27:44.946Z,3.10
2019-03-10T09:30:23.850Z,3.43
2019-03-10T09:33:10.029Z,1.00
2019-03-10T09:35:42.694Z,0.90
2019-03-10T09:38:28.695Z,0.97
2019-03-10T09:40:58.651Z,1.07
2019-03-10T09:43:31.319Z,1.37
2019-03-10T09:46:04.322Z,2.73
2019-03-10T09:48:50.313Z,2.40
2019-03-10T09:51:26.062Z,1.93
2019-03-10T09:53:58.678Z,2.30
2019-03-10T09:56:28.620Z,2.33
2019-03-10T09:59:10.644Z,2.00
2019-03-10T10:01:43.043Z,1.67
2019-03-10T10:04:24.924Z,2.03
2019-03-10T10:06:54.948Z,1.90
2019-03-10T10:09:40.939Z,1.63
2019-03-10T10:12:28.640Z,2.00
2019-03-10T10:15:01.537Z,2.13
2019-03-10T10:17:34.298Z,2.17
2019-03-10T10:20:04.218Z,1.70
2019-03-10T10:22:37.089Z,1.90
2019-03-10T10:25:07.987Z,2.43
2019-03-10T10:27:40.940Z,2.20
2019-03-10T10:30:28.249Z,2.27
2019-03-10T10:33:03.916Z,1.97
2019-03-10T10:35:51.694Z,2.43
2019-03-10T10:38:24.534Z,1.97
2019-03-10T10:40:54.432Z,2.20
2019-03-10T10:43:27.085Z,2.20
2019-03-10T10:46:13.064Z,2.00
2019-03-10T10:48:42.989Z,2.50
2019-03-10T10:51:12.904Z,2.30
2019-03-10T10:53:45.909Z,2.50
2019-03-10T10:56:15.883Z,2.40
2019-03-10T10:58:45.875Z,2.20
2019-03-10T11:01:15.881Z,2.10
2019-03-10T11:03:45.920Z,2.27
2019-03-10T11:06:15.810Z,2.27
2019-03-10T11:08:51.866Z,2.10
2019-03-10T11:11:21.740Z,1.70
2019-03-10T11:14:00.661Z,1.80
2019-03-10T11:16:36.279Z,1.70
2019-03-10T11:19:06.254Z,1.30
2019-03-10T11:21:41.944Z,1.73
2019-03-10T11:24:23.679Z,1.70
2019-03-10T11:26:59.245Z,1.47
2019-03-10T11:29:35.179Z,1.87
2019-03-10T11:32:05.140Z,2.17
2019-03-10T11:34:35.068Z,2.10
2019-03-10T11:37:05.055Z,1.90
2019-03-10T11:39:44.035Z,2.53
2019-03-10T11:42:16.879Z,2.27
2019-03-10T11:45:03.221Z,1.80
2019-03-10T11:47:33.220Z,1.90
2019-03-10T11:50:15.332Z,2.60
2019-03-10T11:52:51.064Z,1.63
2019-03-10T11:55:21.145Z,2.50
2019-03-10T11:57:51.095Z,2.13
2019-03-10T12:00:33.130Z,2.50
2019-03-10T12:03:05.773Z,2.73
2019-03-10T12:05:50.616Z,2.30
2019-03-10T12:08:29.476Z,2.53
2019-03-10T12:10:57.759Z,2.23
2019-03-10T12:13:26.024Z,3.17
2019-03-10T12:15:54.313Z,2.60
2019-03-10T12:18:22.567Z,2.70
2019-03-10T12:20:50.884Z,2.50
2019-03-10T12:23:19.237Z,2.43
2019-03-10T12:25:47.542Z,2.83
2019-03-10T12:28:15.818Z,2.13
2019-03-10T12:30:44.202Z,2.27
2019-03-10T12:33:12.564Z,1.93
2019-03-10T12:35:40.878Z,2.37
2019-03-10T12:38:09.243Z,2.30
2019-03-10T12:40:37.509Z,1.97
2019-03-10T12:43:05.873Z,1.93
2019-03-10T12:45:34.138Z,2.30
2019-03-10T12:48:02.417Z,2.03
2019-03-10T12:50:30.675Z,2.90
2019-03-10T12:52:58.986Z,1.93
2019-03-10T12:55:27.309Z,1.93
2019-03-10T12:57:55.587Z,2.43
2019-03-10T13:00:23.914Z,2.50
2019-03-10T13:02:52.212Z,2.90
2019-03-10T13:05:20.495Z,3.43
2019-03-10T13:07:48.848Z,3.13
2019-03-10T13:10:17.120Z,3.60
2019-03-10T13:12:45.433Z,3.80
2019-03-10T13:15:13.695Z,3.23
2019-03-10T13:17:41.977Z,3.00
2019-03-10T13:20:11.423Z,3.27
2019-03-10T13:22:39.754Z,2.93
2019-03-10T13:25:10.642Z,2.97
2019-03-10T13:27:38.900Z,2.70
2019-03-10T13:30:10.102Z,3.10
2019-03-10T13:32:38.372Z,2.70
2019-03-10T13:35:06.836Z,2.60
2019-03-10T13:37:35.149Z,2.60
2019-03-10T13:40:05.570Z,2.83
2019-03-10T13:42:33.834Z,2.90
2019-03-10T13:45:02.201Z,3.20
2019-03-10T13:47:30.497Z,3.13
2019-03-10T13:49:58.832Z,2.57
2019-03-10T13:52:27.118Z,2.30
2019-03-10T13:54:55.491Z,2.27
2019-03-10T13:57:23.875Z,2.07
2019-03-10T13:59:52.323Z,2.00
2019-03-10T14:02:20.644Z,2.00
2019-03-10T14:04:48.907Z,2.50
2019-03-10T14:07:17.203Z,2.00
2019-03-10T14:09:45.473Z,2.30
2019-03-10T14:12:13.849Z,2.80
2019-03-10T14:14:42.153Z,2.97
2019-03-10T14:17:10.421Z,4.03
2019-03-10T14:19:38.778Z,3.33
2019-03-10T14:22:07.074Z,3.20
2019-03-10T14:24:35.424Z,3.90
2019-03-10T14:27:03.707Z,3.10
2019-03-10T14:29:31.965Z,2.33
2019-03-10T14:32:00.245Z,2.03
2019-03-10T14:34:28.540Z,1.93
2019-03-10T14:36:56.847Z,1.83
2019-03-10T14:39:25.190Z,1.43
2019-03-10T14:41:53.524Z,1.70
2019-03-10T14:44:21.771Z,1.50
2019-03-10T14:46:50.143Z,1.50
2019-03-10T14:49:23.193Z,1.47
2019-03-10T14:51:48.519Z,1.60
2019-03-10T14:54:16.776Z,1.77
2019-03-10T14:56:45.045Z,1.90
2019-03-10T14:59:13.312Z,2.00
2019-03-10T15:01:41.640Z,1.40
2019-03-10T15:04:09.954Z,1.67
2019-03-10T15:06:38.579Z,1.20
2019-03-10T15:09:07.702Z,1.10
2019-03-10T15:11:36.048Z,1.10
2019-03-10T15:14:04.324Z,0.90
2019-03-10T15:16:32.599Z,1.07
2019-03-10T15:19:00.889Z,1.10
2019-03-10T15:21:29.184Z,0.67
2019-03-10T15:23:57.567Z,0.83
2019-03-10T15:26:25.880Z,1.00
2019-03-10T15:28:54.189Z,0.90
2019-03-10T15:31:22.478Z,1.03
2019-03-10T15:33:50.811Z,1.10
2019-03-10T15:36:20.688Z,0.97
2019-03-10T15:38:49.272Z,1.20
2019-03-10T15:41:17.531Z,1.77
2019-03-10T15:43:45.815Z,1.20
2019-03-10T15:46:14.126Z,1.00
2019-03-10T15:48:42.480Z,1.20
2019-03-10T15:51:10.738Z,1.00
2019-03-10T15:53:39.029Z,1.00
2019-03-10T15:56:07.320Z,0.87
2019-03-10T15:58:35.598Z,1.23
2019-03-10T16:01:04.252Z,1.00
2019-03-10T16:03:32.581Z,0.97
2019-03-10T16:06:00.866Z,1.37
2019-03-10T16:08:29.195Z,1.20
2019-03-10T16:10:57.510Z,0.90
2019-03-10T16:13:25.842Z,1.03
2019-03-10T16:15:54.124Z,0.57
2019-03-10T16:18:22.401Z,0.90
2019-03-10T16:20:50.688Z,1.10
2019-03-10T16:23:19.050Z,0.80
2019-03-10T16:25:47.406Z,0.67
2019-03-10T16:28:15.680Z,0.80
2019-03-10T16:30:43.961Z,0.57
2019-03-10T16:33:12.320Z,0.83
2019-03-10T16:35:40.623Z,1.00
2019-03-10T16:38:08.974Z,0.87
2019-03-10T16:40:37.231Z,0.87
2019-03-10T16:43:05.524Z,0.70
2019-03-10T16:45:33.902Z,0.90
2019-03-10T16:48:02.168Z,0.80
2019-03-10T16:50:30.559Z,0.70
2019-03-10T16:52:58.948Z,1.13
2019-03-10T16:55:27.291Z,0.60
2019-03-10T16:57:55.649Z,0.80
2019-03-10T17:00:24.097Z,0.70
2019-03-10T17:02:52.478Z,0.40
2019-03-10T17:05:23.913Z,0.50
2019-03-10T17:07:52.301Z,0.60
2019-03-10T17:10:26.914Z,0.50
2019-03-10T17:12:55.310Z,0.50
2019-03-10T17:15:24.339Z,0.60
2019-03-10T17:17:52.750Z,0.80
2019-03-10T17:20:21.060Z,0.77
2019-03-10T17:22:49.413Z,0.50
2019-03-10T17:25:17.949Z,0.50
2019-03-10T17:27:46.312Z,0.50
2019-03-10T17:30:22.711Z,0.50
2019-03-10T17:32:51.068Z,0.37
2019-03-10T17:35:19.887Z,0.13
2019-03-10T17:37:48.937Z,0.30
2019-03-10T17:40:25.122Z,0.20
2019-03-10T17:42:53.675Z,0.43
2019-03-10T17:45:22.859Z,0.43
2019-03-10T17:47:51.316Z,0.47
2019-03-10T17:50:19.687Z,0.43
2019-03-10T17:52:48.546Z,0.50
2019-03-10T17:55:21.672Z,0.67
2019-03-10T17:57:49.954Z,0.57
2019-03-10T18:00:20.713Z,0.60
2019-03-10T18:02:49.048Z,0.80
2019-03-10T18:05:17.393Z,0.90
2019-03-10T18:07:45.692Z,0.90
2019-03-10T18:10:15.439Z,1.07
2019-03-10T18:12:43.803Z,1.73
2019-03-10T18:15:13.447Z,1.47
2019-03-10T18:17:41.798Z,1.50
2019-03-10T18:20:12.439Z,2.47
2019-03-10T18:22:41.756Z,2.57
2019-03-10T18:25:11.504Z,2.63
2019-03-10T18:27:39.813Z,2.80
2019-03-10T18:30:11.621Z,2.37
2019-03-10T18:32:39.924Z,2.90
2019-03-10T18:35:08.684Z,2.43
2019-03-10T18:37:36.995Z,2.60
2019-03-10T18:40:08.567Z,2.53
2019-03-10T18:42:36.828Z,2.40
2019-03-10T18:45:07.839Z,2.37
2019-03-10T18:47:36.123Z,2.33
2019-03-10T18:50:06.853Z,1.80
2019-03-10T18:52:35.207Z,1.77
2019-03-10T18:55:03.472Z,1.77
2019-03-10T18:57:31.782Z,3.33
2019-03-10T19:00:00.152Z,1.93
2019-03-10T19:02:28.707Z,2.50
2019-03-10T19:04:57.085Z,2.13
2019-03-10T19:07:25.426Z,2.80
2019-03-10T19:09:53.719Z,3.63
2019-03-10T19:12:22.077Z,3.57
2019-03-10T19:14:50.328Z,3.67
2019-03-10T19:17:18.700Z,4.27
2019-03-10T19:19:46.984Z,4.83
2019-03-10T19:22:15.347Z,4.00
2019-03-10T19:24:43.657Z,3.63
2019-03-10T19:27:11.965Z,3.83
2019-03-10T19:29:40.297Z,3.60
2019-03-10T19:32:08.681Z,3.60
2019-03-10T19:34:37.014Z,3.63
2019-03-10T19:37:05.329Z,4.60
2019-03-10T19:39:33.637Z,4.73
2019-03-10T19:42:01.917Z,5.80
2019-03-10T19:44:31.132Z,5.80
2019-03-10T19:46:59.474Z,4.53
2019-03-10T19:49:27.752Z,4.83
2019-03-10T19:51:56.030Z,4.83
2019-03-10T19:54:24.380Z,4.53
2019-03-10T19:56:52.672Z,4.27
2019-03-10T19:59:20.998Z,4.40
2019-03-10T20:01:49.322Z,3.60
2019-03-10T20:04:17.631Z,4.03
2019-03-10T20:06:46.006Z,3.87
2019-03-10T20:09:14.364Z,4.97
2019-03-10T20:11:42.727Z,4.80
2019-03-10T20:14:11.047Z,4.40
2019-03-10T20:16:39.303Z,5.30
2019-03-10T20:19:07.603Z,5.07
2019-03-10T20:21:35.863Z,4.80
2019-03-10T20:24:04.194Z,4.40
2019-03-10T20:26:32.439Z,4.00
2019-03-10T20:29:00.753Z,3.87
2019-03-10T20:31:29.107Z,2.50
2019-03-10T20:33:57.375Z,2.80
2019-03-10T20:36:25.753Z,2.47
2019-03-10T20:38:54.062Z,2.20
2019-03-10T20:41:22.360Z,2.27
2019-03-10T20:43:50.707Z,1.93
2019-03-10T20:46:19.030Z,2.37
2019-03-10T20:48:47.312Z,2.40
2019-03-10T20:51:15.652Z,2.20
2019-03-10T20:53:43.913Z,1.90
2019-03-10T20:56:12.294Z,2.37
2019-03-10T20:58:40.565Z,2.33
2019-03-10T21:01:08.889Z,2.10
2019-03-10T21:03:37.210Z,2.10
2019-03-10T21:06:05.571Z,1.70
2019-03-10T21:08:33.928Z,2.07
2019-03-10T21:11:02.290Z,2.03
2019-03-10T21:13:30.536Z,2.50
2019-03-10T21:15:58.824Z,2.10
2019-03-10T21:18:27.082Z,2.57
2019-03-10T21:20:55.374Z,2.50
2019-03-10T21:23:23.697Z,2.73
2019-03-10T21:25:51.996Z,2.73
2019-03-10T21:28:20.251Z,2.73
2019-03-10T21:30:48.574Z,3.10
2019-03-10T21:33:16.888Z,2.90
2019-03-10T21:35:45.226Z,3.13
2019-03-10T21:38:13.540Z,3.30
2019-03-10T21:40:41.792Z,3.07
2019-03-10T21:43:10.168Z,4.40
2019-03-10T21:45:38.503Z,4.50
2019-03-10T21:48:06.811Z,4.90
2019-03-10T21:50:35.146Z,4.83
2019-03-10T21:53:03.482Z,5.70
2019-03-10T21:55:31.736Z,4.93
2019-03-10T21:58:00.118Z,4.70
2019-03-10T22:00:28.371Z,4.30
2019-03-10T22:02:56.662Z,4.60
2019-03-10T22:05:24.918Z,4.93
2019-03-10T22:07:53.230Z,4.97
2019-03-10T22:10:27.460Z,3.90
2019-03-10T22:12:51.846Z,3.50
2019-03-10T22:15:20.920Z,3.20
2019-03-10T22:17:49.363Z,2.67
2019-03-10T22:20:18.174Z,3.00
2019-03-10T22:22:49.381Z,3.17
2019-03-10T22:25:16.619Z,2.27
2019-03-10T22:27:46.103Z,2.40
2019-03-10T22:30:22.587Z,2.20
2019-03-10T22:32:50.868Z,2.40
2019-03-10T22:35:19.113Z,2.33
2019-03-10T22:37:47.393Z,3.37
2019-03-10T22:40:16.896Z,2.47
2019-03-10T22:42:45.162Z,2.20
2019-03-10T22:45:17.322Z,2.00
2019-03-10T22:47:45.632Z,2.00
2019-03-10T22:50:14.587Z,1.90
2019-03-10T22:52:42.900Z,1.80
2019-03-10T22:55:11.931Z,1.80
2019-03-10T22:57:40.176Z,1.80
2019-03-10T23:00:11.411Z,1.60
2019-03-10T23:02:39.728Z,1.60
2019-03-10T23:05:08.182Z,2.10
2019-03-10T23:07:36.442Z,1.90
2019-03-10T23:10:07.812Z,1.97
2019-03-10T23:12:36.070Z,1.77
2019-03-10T23:15:05.998Z,2.00
2019-03-10T23:17:34.256Z,1.97
2019-03-10T23:20:02.553Z,2.50
2019-03-10T23:22:30.826Z,2.33
2019-03-10T23:25:01.536Z,2.70
2019-03-10T23:27:29.080Z,2.20
2019-03-10T23:29:57.385Z,2.50
2019-03-10T23:32:25.678Z,2.40
2019-03-10T23:34:53.941Z,2.53
2019-03-10T23:37:22.238Z,2.47
2019-03-10T23:39:50.537Z,3.00
2019-03-10T23:42:18.882Z,3.30
2019-03-10T23:44:47.145Z,3.20
2019-03-10T23:47:15.423Z,3.40
2019-03-10T23:49:43.691Z,4.93
2019-03-10T23:52:11.963Z,4.47
2019-03-10T23:54:40.211Z,4.83
2019-03-10T23:57:08.501Z,5.60
2019-03-10T23:59:36.776Z,6.17
